createdAt,value
2018-12-10T00:00:15.785Z,26.09
2018-12-10T00:01:15.746Z,26.09
2018-12-10T00:02:17.536Z,26.11
2018-12-10T00:03:15.664Z,26.15
2018-12-10T00:04:15.645Z,26.12
2018-12-10T00:05:15.706Z,26.11
2018-12-10T00:06:15.701Z,26.11
2018-12-10T00:07:15.566Z,26.12
2018-12-10T00:08:15.673Z,26.06
2018-12-10T00:09:15.860Z,26.04
2018-12-10T00:10:15.514Z,25.93
2018-12-10T00:11:16.090Z,25.94
2018-12-10T00:12:28.273Z,26.01
2018-12-10T00:13:15.882Z,26.03
2018-12-10T00:14:16.180Z,25.99
2018-12-10T00:15:15.845Z,25.89
2018-12-10T00:16:15.327Z,25.94
2018-12-10T00:17:15.299Z,25.93
2018-12-10T00:18:15.764Z,25.84
2018-12-10T00:19:15.826Z,25.91
2018-12-10T00:20:16.339Z,25.82
2018-12-10T00:21:15.427Z,25.84
2018-12-10T00:22:15.286Z,25.76
2018-12-10T00:23:15.124Z,25.79
2018-12-10T00:24:15.101Z,25.81
2018-12-10T00:25:40.915Z,25.78
2018-12-10T00:26:15.118Z,25.79
2018-12-10T00:27:15.107Z,25.78
2018-12-10T00:28:15.023Z,25.75
2018-12-10T00:29:14.999Z,25.85
2018-12-10T00:30:14.957Z,25.76
2018-12-10T00:31:15.065Z,25.75
2018-12-10T00:32:14.937Z,25.78
2018-12-10T00:33:14.866Z,25.71
2018-12-10T00:34:14.845Z,25.69
2018-12-10T00:35:14.824Z,25.75
2018-12-10T00:36:14.889Z,25.71
2018-12-10T00:37:14.774Z,25.71
2018-12-10T00:38:14.836Z,25.70
2018-12-10T00:39:14.707Z,25.76
2018-12-10T00:40:14.695Z,25.76
2018-12-10T00:41:14.759Z,25.85
2018-12-10T00:42:14.699Z,25.81
2018-12-10T00:43:15.126Z,25.81
2018-12-10T00:44:14.578Z,25.88
2018-12-10T00:45:14.567Z,25.84
2018-12-10T00:46:14.634Z,25.84
2018-12-10T00:47:14.522Z,25.82
2018-12-10T00:48:14.535Z,25.84
2018-12-10T00:49:14.487Z,25.82
2018-12-10T00:50:14.431Z,25.88
2018-12-10T00:51:14.408Z,25.88
2018-12-10T00:52:14.498Z,25.85
2018-12-10T00:53:14.356Z,25.93
2018-12-10T00:54:14.349Z,25.88
2018-12-10T00:55:14.294Z,25.86
2018-12-10T00:56:14.294Z,25.84
2018-12-10T00:57:14.242Z,25.91
2018-12-10T00:58:14.324Z,25.99
2018-12-10T00:59:14.194Z,25.97
2018-12-10T01:00:14.187Z,25.99
2018-12-10T01:01:14.151Z,25.97
2018-12-10T01:02:14.113Z,26.01
2018-12-10T01:03:14.095Z,25.93
2018-12-10T01:04:14.171Z,25.96
2018-12-10T01:05:14.087Z,25.96
2018-12-10T01:06:14.054Z,25.94
2018-12-10T01:07:14.008Z,26.01
2018-12-10T01:08:13.961Z,26.00
2018-12-10T01:09:14.038Z,25.97
2018-12-10T01:10:13.937Z,25.96
2018-12-10T01:11:13.895Z,26.04
2018-12-10T01:12:13.857Z,26.01
2018-12-10T01:13:13.844Z,25.97
2018-12-10T01:14:13.913Z,25.93
2018-12-10T01:15:13.784Z,25.94
2018-12-10T01:16:13.779Z,25.86
2018-12-10T01:17:13.745Z,25.91
2018-12-10T01:18:13.715Z,25.88
2018-12-10T01:19:13.817Z,25.88
2018-12-10T01:20:13.671Z,25.89
2018-12-10T01:21:13.672Z,25.85
2018-12-10T01:22:13.621Z,25.86
2018-12-10T01:23:13.587Z,25.78
2018-12-10T01:24:13.653Z,25.79
2018-12-10T01:25:13.543Z,25.84
2018-12-10T01:26:13.468Z,25.81
2018-12-10T01:27:13.523Z,25.82
2018-12-10T01:28:13.442Z,25.74
2018-12-10T01:29:13.465Z,25.75
2018-12-10T01:30:13.458Z,25.71
2018-12-10T01:31:13.368Z,25.64
2018-12-10T01:32:13.417Z,25.70
2018-12-10T01:33:13.340Z,25.66
2018-12-10T01:34:13.296Z,25.56
2018-12-10T01:35:13.283Z,25.54
2018-12-10T01:36:13.390Z,25.54
2018-12-10T01:37:13.258Z,25.54
2018-12-10T01:38:13.206Z,25.48
2018-12-10T01:39:13.143Z,25.51
2018-12-10T01:40:13.151Z,25.57
2018-12-10T01:41:13.242Z,25.42
2018-12-10T01:42:13.128Z,25.45
2018-12-10T01:43:13.129Z,25.41
2018-12-10T01:44:13.024Z,25.37
2018-12-10T01:45:13.012Z,25.33
2018-12-10T01:46:14.443Z,25.30
2018-12-10T01:47:13.079Z,25.34
2018-12-10T01:48:12.920Z,25.29
2018-12-10T01:49:12.909Z,25.37
2018-12-10T01:50:12.900Z,25.34
2018-12-10T01:51:12.832Z,25.32
2018-12-10T01:52:12.966Z,25.37
2018-12-10T01:53:12.790Z,25.26
2018-12-10T01:54:12.759Z,25.26
2018-12-10T01:55:12.734Z,25.24
2018-12-10T01:56:12.741Z,25.29
2018-12-10T01:57:12.885Z,25.17
2018-12-10T01:58:12.671Z,25.12
2018-12-10T01:59:12.663Z,25.09
2018-12-10T02:00:12.607Z,25.04
2018-12-10T02:01:12.595Z,25.15
2018-12-10T02:02:12.673Z,25.11
2018-12-10T02:03:12.529Z,25.11
2018-12-10T02:04:25.319Z,25.00
2018-12-10T02:05:12.476Z,25.02
2018-12-10T02:06:12.474Z,25.01
2018-12-10T02:07:12.451Z,24.96
2018-12-10T02:08:12.566Z,24.97
2018-12-10T02:09:12.384Z,24.93
2018-12-10T02:10:12.351Z,24.94
2018-12-10T02:11:12.325Z,24.90
2018-12-10T02:12:12.297Z,24.94
2018-12-10T02:13:12.255Z,24.93
2018-12-10T02:14:12.462Z,24.93
2018-12-10T02:15:12.205Z,24.92
2018-12-10T02:16:12.191Z,24.90
2018-12-10T02:17:12.171Z,24.82
2018-12-10T02:18:12.156Z,24.86
2018-12-10T02:19:12.289Z,24.89
2018-12-10T02:20:12.153Z,24.77
2018-12-10T02:21:12.051Z,24.82
2018-12-10T02:22:12.014Z,24.78
2018-12-10T02:23:12.002Z,24.78
2018-12-10T02:24:12.083Z,24.87
2018-12-10T02:25:12.076Z,24.82
2018-12-10T02:26:11.926Z,24.80
2018-12-10T02:27:11.888Z,24.80
2018-12-10T02:28:11.860Z,24.87
2018-12-10T02:29:11.929Z,24.86
2018-12-10T02:30:11.855Z,24.92
2018-12-10T02:31:11.815Z,24.82
2018-12-10T02:32:11.773Z,24.82
2018-12-10T02:33:11.744Z,24.77
2018-12-10T02:34:11.874Z,24.80
2018-12-10T02:35:11.785Z,24.82
2018-12-10T02:36:12.184Z,24.77
2018-12-10T02:37:11.664Z,24.75
2018-12-10T02:38:11.617Z,24.75
2018-12-10T02:39:11.674Z,24.75
2018-12-10T02:40:11.559Z,24.78
2018-12-10T02:41:11.540Z,24.75
2018-12-10T02:42:11.500Z,24.74
2018-12-10T02:43:11.464Z,24.75
2018-12-10T02:44:11.447Z,24.61
2018-12-10T02:45:11.580Z,24.58
2018-12-10T02:46:11.383Z,24.59
2018-12-10T02:47:11.353Z,24.64
2018-12-10T02:48:11.327Z,24.59
2018-12-10T02:49:11.324Z,24.61
2018-12-10T02:50:11.275Z,24.56
2018-12-10T02:51:11.373Z,24.67
2018-12-10T02:52:11.736Z,24.51
2018-12-10T02:53:11.219Z,24.66
2018-12-10T02:54:11.166Z,24.63
2018-12-10T02:55:11.151Z,24.56
2018-12-10T02:56:11.221Z,24.64
2018-12-10T02:57:11.085Z,24.63
2018-12-10T02:58:11.071Z,24.48
2018-12-10T02:59:11.043Z,24.54
2018-12-10T03:00:11.100Z,24.58
2018-12-10T03:01:11.137Z,24.51
2018-12-10T03:02:10.957Z,24.51
2018-12-10T03:03:10.928Z,24.51
2018-12-10T03:04:10.915Z,24.54
2018-12-10T03:05:10.882Z,24.52
2018-12-10T03:06:11.004Z,24.52
2018-12-10T03:07:11.441Z,24.46
2018-12-10T03:08:10.787Z,24.49
2018-12-10T03:09:10.823Z,24.48
2018-12-10T03:10:10.752Z,24.54
2018-12-10T03:11:10.858Z,24.52
2018-12-10T03:12:10.686Z,24.39
2018-12-10T03:13:10.686Z,24.42
2018-12-10T03:14:10.635Z,24.44
2018-12-10T03:15:10.637Z,24.48
2018-12-10T03:16:10.696Z,24.44
2018-12-10T03:17:10.590Z,24.42
2018-12-10T03:18:10.552Z,24.44
2018-12-10T03:19:10.507Z,24.44
2018-12-10T03:20:10.491Z,24.40
2018-12-10T03:21:10.443Z,24.52
2018-12-10T03:22:10.616Z,24.39
2018-12-10T03:23:10.399Z,24.45
2018-12-10T03:24:10.382Z,24.39
2018-12-10T03:25:10.349Z,24.36
2018-12-10T03:26:10.348Z,24.34
2018-12-10T03:27:10.299Z,24.34
2018-12-10T03:28:11.264Z,24.33
2018-12-10T03:29:10.519Z,24.30
2018-12-10T03:30:10.215Z,24.39
2018-12-10T03:31:10.224Z,24.33
2018-12-10T03:32:10.222Z,24.30
2018-12-10T03:33:10.327Z,24.32
2018-12-10T03:34:10.193Z,24.32
2018-12-10T03:35:10.090Z,24.22
2018-12-10T03:36:10.073Z,24.24
2018-12-10T03:37:10.018Z,24.24
2018-12-10T03:38:09.970Z,24.29
2018-12-10T03:39:10.116Z,24.22
2018-12-10T03:40:09.943Z,24.19
2018-12-10T03:41:09.921Z,24.24
2018-12-10T03:42:09.896Z,24.19
2018-12-10T03:43:09.867Z,24.27
2018-12-10T03:44:09.935Z,24.24
2018-12-10T03:45:09.842Z,24.18
2018-12-10T03:46:09.781Z,24.26
2018-12-10T03:47:09.749Z,24.04
2018-12-10T03:48:09.773Z,24.11
2018-12-10T03:49:09.807Z,24.15
2018-12-10T03:50:09.671Z,24.09
2018-12-10T03:51:09.663Z,24.12
2018-12-10T03:52:09.662Z,24.19
2018-12-10T03:53:09.833Z,24.07
2018-12-10T03:54:09.640Z,24.21
2018-12-10T03:55:09.652Z,24.15
2018-12-10T03:56:09.513Z,24.18
2018-12-10T03:57:09.483Z,24.11
2018-12-10T03:58:09.646Z,24.09
2018-12-10T03:59:09.445Z,24.14
2018-12-10T04:00:09.406Z,24.07
2018-12-10T04:01:09.482Z,24.09
2018-12-10T04:02:09.356Z,24.03
2018-12-10T04:03:12.415Z,24.18
2018-12-10T04:04:10.091Z,24.17
2018-12-10T04:05:09.268Z,24.11
2018-12-10T04:06:09.370Z,24.07
2018-12-10T04:07:09.229Z,24.03
2018-12-10T04:08:09.191Z,24.08
2018-12-10T04:09:09.180Z,24.04
2018-12-10T04:10:09.171Z,24.07
2018-12-10T04:11:09.221Z,24.08
2018-12-10T04:12:09.090Z,24.08
2018-12-10T04:13:09.043Z,24.07
2018-12-10T04:14:09.025Z,24.11
2018-12-10T04:15:09.050Z,24.04
2018-12-10T04:16:09.134Z,24.04
2018-12-10T04:17:08.945Z,24.07
2018-12-10T04:18:08.994Z,24.09
2018-12-10T04:19:08.899Z,24.09
2018-12-10T04:20:08.920Z,24.12
2018-12-10T04:21:08.987Z,24.04
2018-12-10T04:22:08.806Z,23.99
2018-12-10T04:23:08.939Z,24.00
2018-12-10T04:24:08.780Z,24.00
2018-12-10T04:25:08.741Z,23.96
2018-12-10T04:26:08.699Z,23.97
2018-12-10T04:27:08.774Z,23.97
2018-12-10T04:28:08.672Z,23.97
2018-12-10T04:29:08.632Z,23.97
2018-12-10T04:30:08.635Z,23.93
2018-12-10T04:31:08.557Z,23.90
2018-12-10T04:32:08.664Z,23.89
2018-12-10T04:33:08.514Z,23.92
2018-12-10T04:34:08.502Z,23.87
2018-12-10T04:35:08.455Z,23.82
2018-12-10T04:36:08.438Z,23.81
2018-12-10T04:37:08.398Z,23.82
2018-12-10T04:38:08.497Z,23.79
2018-12-10T04:39:08.364Z,23.87
2018-12-10T04:40:08.357Z,23.77
2018-12-10T04:41:08.298Z,23.82
2018-12-10T04:42:08.261Z,23.87
2018-12-10T04:43:08.245Z,23.87
2018-12-10T04:44:08.329Z,23.82
2018-12-10T04:45:08.195Z,23.84
2018-12-10T04:46:08.169Z,23.74
2018-12-10T04:47:08.148Z,23.77
2018-12-10T04:48:08.120Z,23.74
2018-12-10T04:49:08.159Z,23.70
2018-12-10T04:50:08.077Z,23.72
2018-12-10T04:51:08.020Z,23.77
2018-12-10T04:52:07.985Z,23.75
2018-12-10T04:53:07.959Z,23.75
2018-12-10T04:54:08.082Z,23.78
2018-12-10T04:55:07.951Z,23.70
2018-12-10T04:56:07.876Z,23.67
2018-12-10T04:57:07.878Z,23.67
2018-12-10T04:58:07.827Z,23.72
2018-12-10T04:59:07.879Z,23.74
2018-12-10T05:00:08.555Z,23.70
2018-12-10T05:01:07.748Z,23.70
2018-12-10T05:02:07.765Z,23.66
2018-12-10T05:03:07.698Z,23.63
2018-12-10T05:04:07.659Z,23.62
2018-12-10T05:05:07.926Z,23.64
2018-12-10T05:06:07.619Z,23.64
2018-12-10T05:07:07.611Z,23.72
2018-12-10T05:08:07.586Z,23.64
2018-12-10T05:09:07.519Z,23.71
2018-12-10T05:10:07.558Z,23.62
2018-12-10T05:11:07.526Z,23.60
2018-12-10T05:12:07.491Z,23.70
2018-12-10T05:13:07.442Z,23.63
2018-12-10T05:14:07.428Z,23.63
2018-12-10T05:15:07.361Z,23.63
2018-12-10T05:16:09.193Z,23.63
2018-12-10T05:17:07.334Z,23.60
2018-12-10T05:18:07.308Z,23.62
2018-12-10T05:19:07.295Z,23.59
2018-12-10T05:20:07.270Z,23.64
2018-12-10T05:21:07.253Z,23.59
2018-12-10T05:22:07.174Z,23.56
2018-12-10T05:23:07.178Z,23.56
2018-12-10T05:24:07.113Z,23.56
2018-12-10T05:25:07.099Z,23.60
2018-12-10T05:26:07.242Z,23.62
2018-12-10T05:27:07.054Z,23.53
2018-12-10T05:28:07.007Z,23.52
2018-12-10T05:29:06.977Z,23.47
2018-12-10T05:30:06.965Z,23.56
2018-12-10T05:31:07.030Z,23.57
2018-12-10T05:32:06.983Z,23.59
2018-12-10T05:33:06.892Z,23.56
2018-12-10T05:34:06.852Z,23.47
2018-12-10T05:35:06.833Z,23.55
2018-12-10T05:36:06.979Z,23.53
2018-12-10T05:37:06.826Z,23.52
2018-12-10T05:38:06.751Z,23.50
2018-12-10T05:39:08.173Z,23.48
2018-12-10T05:40:08.382Z,23.47
2018-12-10T05:41:08.153Z,23.53
2018-12-10T05:42:09.014Z,23.55
2018-12-10T05:43:06.854Z,23.57
2018-12-10T05:44:06.577Z,23.53
2018-12-10T05:45:06.554Z,23.57
2018-12-10T05:46:06.519Z,23.66
2018-12-10T05:47:06.523Z,23.63
2018-12-10T05:48:06.620Z,23.59
2018-12-10T05:49:06.493Z,23.48
2018-12-10T05:50:06.480Z,23.62
2018-12-10T05:51:06.387Z,23.48
2018-12-10T05:52:06.360Z,23.52
2018-12-10T05:53:06.441Z,23.55
2018-12-10T05:54:06.460Z,23.48
2018-12-10T05:55:06.294Z,23.50
2018-12-10T05:56:06.263Z,23.59
2018-12-10T05:57:06.218Z,23.56
2018-12-10T05:58:06.343Z,23.48
2018-12-10T05:59:06.195Z,23.48
2018-12-10T06:00:06.169Z,23.42
2018-12-10T06:01:06.252Z,23.47
2018-12-10T06:02:06.216Z,23.47
2018-12-10T06:03:06.151Z,23.44
2018-12-10T06:04:06.058Z,23.42
2018-12-10T06:05:06.146Z,23.37
2018-12-10T06:06:06.144Z,23.35
2018-12-10T06:07:05.966Z,23.32
2018-12-10T06:08:05.961Z,23.34
2018-12-10T06:09:06.265Z,23.22
2018-12-10T06:10:05.993Z,23.29
2018-12-10T06:11:05.990Z,23.35
2018-12-10T06:12:05.825Z,23.28
2018-12-10T06:13:05.805Z,23.28
2018-12-10T06:14:05.858Z,23.41
2018-12-10T06:15:05.784Z,23.29
2018-12-10T06:16:05.967Z,23.37
2018-12-10T06:17:05.688Z,23.35
2018-12-10T06:18:05.752Z,23.32
2018-12-10T06:19:05.724Z,23.21
2018-12-10T06:20:05.648Z,23.19
2018-12-10T06:21:05.645Z,23.25
2018-12-10T06:22:05.792Z,23.34
2018-12-10T06:23:05.550Z,23.21
2018-12-10T06:24:05.540Z,23.25
2018-12-10T06:25:05.679Z,23.24
2018-12-10T06:26:05.465Z,23.29
2018-12-10T06:27:05.427Z,23.18
2018-12-10T06:28:05.370Z,23.16
2018-12-10T06:29:05.342Z,23.21
2018-12-10T06:30:05.559Z,23.12
2018-12-10T06:31:05.404Z,23.10
2018-12-10T06:32:05.271Z,23.14
2018-12-10T06:33:05.214Z,23.09
2018-12-10T06:34:05.355Z,23.12
2018-12-10T06:35:05.207Z,23.12
2018-12-10T06:36:05.242Z,23.21
2018-12-10T06:37:05.117Z,23.19
2018-12-10T06:38:05.146Z,23.18
2018-12-10T06:39:05.120Z,23.09
2018-12-10T06:40:05.060Z,23.21
2018-12-10T06:41:05.078Z,23.14
2018-12-10T06:42:05.134Z,23.16
2018-12-10T06:43:05.009Z,23.18
2018-12-10T06:44:04.927Z,23.16
2018-12-10T06:45:05.013Z,23.10
2018-12-10T06:46:04.882Z,23.12
2018-12-10T06:47:06.450Z,23.12
2018-12-10T06:48:04.971Z,23.04
2018-12-10T06:49:04.828Z,23.04
2018-12-10T06:50:04.824Z,23.01
2018-12-10T06:51:04.742Z,23.06
2018-12-10T06:52:04.708Z,23.07
2018-12-10T06:53:04.809Z,23.00
2018-12-10T06:54:04.753Z,23.12
2018-12-10T06:55:04.625Z,23.04
2018-12-10T06:56:04.603Z,23.07
2018-12-10T06:57:04.588Z,23.00
2018-12-10T06:58:04.787Z,22.99
2018-12-10T06:59:04.875Z,23.01
2018-12-10T07:00:04.613Z,23.03
2018-12-10T07:01:04.465Z,23.00
2018-12-10T07:02:04.446Z,22.99
2018-12-10T07:03:04.436Z,22.97
2018-12-10T07:04:04.716Z,22.97
2018-12-10T07:05:04.348Z,22.91
2018-12-10T07:06:04.311Z,22.94
2018-12-10T07:07:04.457Z,22.94
2018-12-10T07:08:04.270Z,22.99
2018-12-10T07:09:04.489Z,22.94
2018-12-10T07:10:04.320Z,22.94
2018-12-10T07:11:04.421Z,22.96
2018-12-10T07:12:04.377Z,22.88
2018-12-10T07:13:04.220Z,23.00
2018-12-10T07:14:04.119Z,22.86
2018-12-10T07:15:04.147Z,22.84
2018-12-10T07:16:04.116Z,22.92
2018-12-10T07:17:04.516Z,22.89
2018-12-10T07:18:04.116Z,22.84
2018-12-10T07:19:04.008Z,22.85
2018-12-10T07:20:04.046Z,22.86
2018-12-10T07:21:04.068Z,22.85
2018-12-10T07:22:03.861Z,22.84
2018-12-10T07:23:03.886Z,22.81
2018-12-10T07:24:03.835Z,22.82
2018-12-10T07:25:03.832Z,22.82
2018-12-10T07:26:03.845Z,22.79
2018-12-10T07:27:03.775Z,22.73
2018-12-10T07:28:03.790Z,22.75
2018-12-10T07:29:03.713Z,22.73
2018-12-10T07:30:03.712Z,22.75
2018-12-10T07:31:03.749Z,22.73
2018-12-10T07:32:03.628Z,22.79
2018-12-10T07:33:03.661Z,22.78
2018-12-10T07:34:03.647Z,22.78
2018-12-10T07:35:03.617Z,22.78
2018-12-10T07:36:03.832Z,22.76
2018-12-10T07:37:03.463Z,22.75
2018-12-10T07:38:03.461Z,22.71
2018-12-10T07:39:03.591Z,22.71
2018-12-10T07:40:03.375Z,22.69
2018-12-10T07:41:03.361Z,22.64
2018-12-10T07:42:07.018Z,22.66
2018-12-10T07:43:04.518Z,22.69
2018-12-10T07:44:03.285Z,22.71
2018-12-10T07:45:04.369Z,22.60
2018-12-10T07:46:04.888Z,22.67
2018-12-10T07:47:03.199Z,22.66
2018-12-10T07:48:03.260Z,22.66
2018-12-10T07:49:03.130Z,22.66
2018-12-10T07:50:03.199Z,22.63
2018-12-10T07:51:03.091Z,22.60
2018-12-10T07:52:03.065Z,22.69
2018-12-10T07:53:03.138Z,22.63
2018-12-10T07:54:03.081Z,22.57
2018-12-10T07:55:02.963Z,22.54
2018-12-10T07:56:02.976Z,22.51
2018-12-10T07:57:02.962Z,22.66
2018-12-10T07:58:05.650Z,22.49
2018-12-10T07:59:04.312Z,22.54
2018-12-10T08:00:02.961Z,22.51
2018-12-10T08:01:02.812Z,22.48
2018-12-10T08:02:02.787Z,22.42
2018-12-10T08:03:02.751Z,22.42
2018-12-10T08:04:04.632Z,22.34
2018-12-10T08:05:03.332Z,22.41
2018-12-10T08:06:02.677Z,22.45
2018-12-10T08:07:03.562Z,22.42
2018-12-10T08:08:04.450Z,22.39
2018-12-10T08:09:05.234Z,22.46
2018-12-10T08:10:04.309Z,22.36
2018-12-10T08:11:04.151Z,22.34
2018-12-10T08:12:04.200Z,22.36
2018-12-10T08:13:04.126Z,22.39
2018-12-10T08:14:04.292Z,22.31
2018-12-10T08:15:05.166Z,22.34
2018-12-10T08:16:03.631Z,22.29
2018-12-10T08:17:04.017Z,22.29
2018-12-10T08:18:02.340Z,22.34
2018-12-10T08:19:02.381Z,22.30
2018-12-10T08:20:02.268Z,22.29
2018-12-10T08:21:04.964Z,22.27
2018-12-10T08:22:03.796Z,22.31
2018-12-10T08:23:03.650Z,22.29
2018-12-10T08:24:02.169Z,22.23
2018-12-10T08:25:02.209Z,22.29
2018-12-10T08:26:02.149Z,22.22
2018-12-10T08:27:09.387Z,22.26
2018-12-10T08:28:03.587Z,22.18
2018-12-10T08:29:07.411Z,22.16
2018-12-10T08:30:03.693Z,22.08
2018-12-10T08:31:03.821Z,22.07
2018-12-10T08:32:02.074Z,22.23
2018-12-10T08:33:03.508Z,22.12
2018-12-10T08:34:03.591Z,22.16
2018-12-10T08:35:03.419Z,22.07
2018-12-10T08:36:03.283Z,22.18
2018-12-10T08:37:03.589Z,22.16
2018-12-10T08:38:01.904Z,22.16
2018-12-10T08:39:01.774Z,22.20
2018-12-10T08:40:01.741Z,22.23
2018-12-10T08:41:01.686Z,22.15
2018-12-10T08:42:01.775Z,22.16
2018-12-10T08:43:04.552Z,22.09
2018-12-10T08:44:03.509Z,22.20
2018-12-10T08:45:03.152Z,22.20
2018-12-10T08:46:01.970Z,22.24
2018-12-10T08:47:01.523Z,22.18
2018-12-10T08:48:01.517Z,22.08
2018-12-10T08:49:01.622Z,22.09
2018-12-10T08:50:01.465Z,22.11
2018-12-10T08:51:02.438Z,22.09
2018-12-10T08:52:03.180Z,22.08
2018-12-10T08:53:02.530Z,22.14
2018-12-10T08:54:02.942Z,22.11
2018-12-10T08:55:03.836Z,22.11
2018-12-10T08:56:02.906Z,21.97
2018-12-10T08:57:02.921Z,21.92
2018-12-10T08:58:03.023Z,21.94
2018-12-10T08:59:03.346Z,21.97
2018-12-10T09:00:02.944Z,21.94
2018-12-10T09:01:03.890Z,21.89
2018-12-10T09:03:02.739Z,21.93
2018-12-10T09:04:03.128Z,21.92
2018-12-10T09:05:03.093Z,21.96
2018-12-10T09:06:02.193Z,21.96
2018-12-10T09:07:03.675Z,21.92
2018-12-10T09:08:02.742Z,21.89
2018-12-10T09:09:01.137Z,21.85
2018-12-10T09:10:02.911Z,21.86
2018-12-10T09:11:02.571Z,21.82
2018-12-10T09:12:00.835Z,21.90
2018-12-10T09:13:03.301Z,21.92
2018-12-10T09:14:02.625Z,21.92
2018-12-10T09:15:01.593Z,21.92
2018-12-10T09:16:01.036Z,21.89
2018-12-10T09:17:01.062Z,21.86
2018-12-10T09:18:01.049Z,21.78
2018-12-10T09:19:03.521Z,21.83
2018-12-10T09:20:02.270Z,21.83
2018-12-10T09:21:02.373Z,21.82
2018-12-10T09:22:02.358Z,21.85
2018-12-10T09:23:02.327Z,21.90
2018-12-10T09:24:02.709Z,21.92
2018-12-10T09:25:03.363Z,21.85
2018-12-10T09:26:02.164Z,21.83
2018-12-10T09:27:02.139Z,21.86
2018-12-10T09:28:01.929Z,21.83
2018-12-10T09:29:01.819Z,21.89
2018-12-10T09:30:01.887Z,21.90
2018-12-10T09:31:02.374Z,21.86
2018-12-10T09:32:01.813Z,21.83
2018-12-10T09:33:01.480Z,21.86
2018-12-10T09:34:01.891Z,21.74
2018-12-10T09:35:02.012Z,21.80
2018-12-10T09:36:02.001Z,21.86
2018-12-10T09:37:02.844Z,21.78
2018-12-10T09:38:01.931Z,21.90
2018-12-10T09:40:01.914Z,21.90
2018-12-10T09:41:01.532Z,21.83
2018-12-10T09:42:01.428Z,21.76
2018-12-10T09:43:03.103Z,21.80
2018-12-10T09:44:01.427Z,21.74
2018-12-10T09:45:01.820Z,21.82
2018-12-10T09:46:02.059Z,21.67
2018-12-10T09:47:01.368Z,21.68
2018-12-10T09:48:01.368Z,21.66
2018-12-10T09:49:01.861Z,21.68
2018-12-10T09:50:00.915Z,21.68
2018-12-10T09:51:01.475Z,21.68
2018-12-10T09:52:01.194Z,21.66
2018-12-10T09:53:02.118Z,21.64
2018-12-10T09:54:01.317Z,21.59
2018-12-10T09:55:02.123Z,21.61
2018-12-10T09:56:01.301Z,21.70
2018-12-10T09:57:01.049Z,21.70
2018-12-10T09:58:01.150Z,21.59
2018-12-10T09:59:00.789Z,21.73
2018-12-10T10:00:01.669Z,21.62
2018-12-10T10:01:01.992Z,21.66
2018-12-10T10:02:01.152Z,21.53
2018-12-10T10:03:01.082Z,21.71
2018-12-10T10:04:00.924Z,21.61
2018-12-10T10:05:00.694Z,21.62
2018-12-10T10:06:00.866Z,21.74
2018-12-10T10:07:01.222Z,21.78
2018-12-10T10:08:00.699Z,21.73
2018-12-10T10:09:01.060Z,21.76
2018-12-10T10:10:01.057Z,21.83
2018-12-10T10:11:00.953Z,21.94
2018-12-10T10:12:00.510Z,21.89
2018-12-10T10:13:01.406Z,21.85
2018-12-10T10:14:00.955Z,22.00
2018-12-10T10:15:00.802Z,21.99
2018-12-10T10:16:00.755Z,22.00
2018-12-10T10:17:00.846Z,21.97
2018-12-10T10:17:59.915Z,22.12
2018-12-10T10:19:01.546Z,22.09
2018-12-10T10:20:00.719Z,22.15
2018-12-10T10:21:00.486Z,22.24
2018-12-10T10:22:00.578Z,22.29
2018-12-10T10:23:00.684Z,22.30
2018-12-10T10:24:00.608Z,22.34
2018-12-10T10:25:01.470Z,22.46
2018-12-10T10:26:00.574Z,22.31
2018-12-10T10:27:00.155Z,22.34
2018-12-10T10:28:00.559Z,22.33
2018-12-10T10:29:00.385Z,22.39
2018-12-10T10:30:00.557Z,22.45
2018-12-10T10:31:01.050Z,22.51
2018-12-10T10:32:00.391Z,22.45
2018-12-10T10:33:00.163Z,22.51
2018-12-10T10:33:59.703Z,22.54
2018-12-10T10:35:00.047Z,22.61
2018-12-10T10:35:59.981Z,22.52
2018-12-10T10:37:01.179Z,22.36
2018-12-10T10:38:00.151Z,22.33
2018-12-10T10:38:59.726Z,22.36
2018-12-10T10:40:00.152Z,22.33
2018-12-10T10:40:59.901Z,22.22
2018-12-10T10:41:59.882Z,22.05
2018-12-10T10:43:00.923Z,21.97
2018-12-10T10:44:01.913Z,21.93
2018-12-10T10:44:59.933Z,21.94
2018-12-10T10:45:59.943Z,21.93
2018-12-10T10:46:59.507Z,21.90
2018-12-10T10:47:59.950Z,21.86
2018-12-10T10:49:00.896Z,21.80
2018-12-10T10:49:59.775Z,21.86
2018-12-10T10:50:59.431Z,21.83
2018-12-10T10:51:59.269Z,21.77
2018-12-10T10:52:59.727Z,21.70
2018-12-10T10:53:59.747Z,21.73
2018-12-10T10:55:00.164Z,21.62
2018-12-10T10:55:59.586Z,21.67
2018-12-10T10:56:59.613Z,21.66
2018-12-10T10:57:59.703Z,21.66
2018-12-10T10:58:59.687Z,21.66
2018-12-10T10:59:58.990Z,21.67
2018-12-10T11:01:00.323Z,21.71
2018-12-10T11:01:59.578Z,21.62
2018-12-10T11:02:59.364Z,21.61
2018-12-10T11:03:59.449Z,21.53
2018-12-10T11:04:59.397Z,21.48
2018-12-10T11:05:59.024Z,21.48
2018-12-10T11:06:59.919Z,21.49
2018-12-10T11:07:59.337Z,21.48
2018-12-10T11:08:59.266Z,21.51
2018-12-10T11:09:58.467Z,21.52
2018-12-10T11:10:59.561Z,21.45
2018-12-10T11:11:59.031Z,21.46
2018-12-10T11:12:59.918Z,21.40
2018-12-10T11:13:59.199Z,21.45
2018-12-10T11:14:59.177Z,21.38
2018-12-10T11:15:59.164Z,21.41
2018-12-10T11:16:59.181Z,21.36
2018-12-10T11:17:58.778Z,21.34
2018-12-10T11:18:59.963Z,21.30
2018-12-10T11:19:59.013Z,21.33
2018-12-10T11:20:58.760Z,21.34
2018-12-10T11:21:58.531Z,21.25
2018-12-10T11:22:58.830Z,21.27
2018-12-10T11:23:58.840Z,21.31
2018-12-10T11:24:59.224Z,21.21
2018-12-10T11:25:58.781Z,21.28
2018-12-10T11:26:58.865Z,21.18
2018-12-10T11:27:58.782Z,21.19
2018-12-10T11:28:58.527Z,21.13
2018-12-10T11:29:58.121Z,21.16
2018-12-10T11:30:59.115Z,21.13
2018-12-10T11:31:58.676Z,21.23
2018-12-10T11:32:58.854Z,21.22
2018-12-10T11:33:58.342Z,21.21
2018-12-10T11:34:58.159Z,21.27
2018-12-10T11:35:58.423Z,21.27
2018-12-10T11:36:59.077Z,21.28
2018-12-10T11:37:58.367Z,21.25
2018-12-10T11:38:58.293Z,21.25
2018-12-10T11:39:58.088Z,21.28
2018-12-10T11:40:58.334Z,21.30
2018-12-10T11:41:58.365Z,21.28
2018-12-10T11:42:59.445Z,21.36
2018-12-10T11:43:58.331Z,21.34
2018-12-10T11:44:58.257Z,21.33
2018-12-10T11:45:58.160Z,21.38
2018-12-10T11:46:57.976Z,21.37
2018-12-10T11:47:58.241Z,21.40
2018-12-10T11:48:59.250Z,21.49
2018-12-10T11:49:58.102Z,21.45
2018-12-10T11:50:57.682Z,21.41
2018-12-10T11:51:57.643Z,21.43
2018-12-10T11:52:57.612Z,21.41
2018-12-10T11:53:58.355Z,21.48
2018-12-10T11:54:58.973Z,21.46
2018-12-10T11:55:58.042Z,21.43
2018-12-10T11:56:57.798Z,21.51
2018-12-10T11:57:57.511Z,21.36
2018-12-10T11:58:57.504Z,21.41
2018-12-10T11:59:57.680Z,21.49
2018-12-10T12:00:59.097Z,21.49
2018-12-10T12:01:57.850Z,21.43
2018-12-10T12:02:57.860Z,21.52
2018-12-10T12:03:57.814Z,21.59
2018-12-10T12:04:57.524Z,21.52
2018-12-10T12:05:57.244Z,21.64
2018-12-10T12:06:58.123Z,21.61
2018-12-10T12:07:57.612Z,21.62
2018-12-10T12:08:57.992Z,21.58
2018-12-10T12:09:57.158Z,21.68
2018-12-10T12:10:57.555Z,21.66
2018-12-10T12:11:57.356Z,21.73
2018-12-10T12:12:57.782Z,21.76
2018-12-10T12:13:57.175Z,21.77
2018-12-10T12:14:57.413Z,21.78
2018-12-10T12:15:57.454Z,21.80
2018-12-10T12:16:57.442Z,21.89
2018-12-10T12:17:57.382Z,21.89
2018-12-10T12:18:58.391Z,21.93
2018-12-10T12:19:57.073Z,21.99
2018-12-10T12:20:57.320Z,22.08
2018-12-10T12:21:57.208Z,22.08
2018-12-10T12:22:57.184Z,22.09
2018-12-10T12:23:57.571Z,22.12
2018-12-10T12:24:58.029Z,22.08
2018-12-10T12:25:56.875Z,22.00
2018-12-10T12:26:56.839Z,22.07
2018-12-10T12:27:56.919Z,22.05
2018-12-10T12:28:56.849Z,22.12
2018-12-10T12:29:56.991Z,22.12
2018-12-10T12:30:57.698Z,22.16
2018-12-10T12:31:56.628Z,22.20
2018-12-10T12:32:57.031Z,22.30
2018-12-10T12:33:56.671Z,22.45
2018-12-10T12:34:56.637Z,22.41
2018-12-10T12:35:56.585Z,22.49
2018-12-10T12:37:58.089Z,22.49
2018-12-10T12:38:56.675Z,22.61
2018-12-10T12:39:56.710Z,22.64
2018-12-10T12:40:56.704Z,22.69
2018-12-10T12:41:57.040Z,22.73
2018-12-10T12:42:56.613Z,22.85
2018-12-10T12:43:54.904Z,22.85
2018-12-10T12:44:54.799Z,22.84
2018-12-10T12:45:54.753Z,22.82
2018-12-10T12:46:54.730Z,23.04
2018-12-10T12:47:54.702Z,23.07
2018-12-10T12:48:54.798Z,23.19
2018-12-10T12:49:54.681Z,23.16
2018-12-10T12:50:54.636Z,23.29
2018-12-10T12:51:54.642Z,23.41
2018-12-10T12:52:54.595Z,23.44
2018-12-10T12:53:54.576Z,23.55
2018-12-10T12:54:54.499Z,23.70